createdAt,value
2022-08-03T00:00:40.235Z,99958.84
2022-08-03T00:03:10.192Z,99965.94
2022-08-03T00:05:40.146Z,99967.72
2022-08-03T00:08:28.841Z,99956.31
2022-08-03T00:10:57.398Z,99951.91
2022-08-03T00:13:26.566Z,99956.31
2022-08-03T00:15:55.583Z,99962.50
2022-08-03T00:18:26.000Z,99951.94
2022-08-03T00:20:55.692Z,99956.38
2022-08-03T00:23:24.188Z,99952.88
2022-08-03T00:25:53.247Z,99949.34
2022-08-03T00:28:21.869Z,99942.28
2022-08-03T00:30:52.503Z,99938.78
2022-08-03T00:33:21.164Z,99945.88
2022-08-03T00:35:52.929Z,99942.34
2022-08-03T00:38:22.063Z,99938.84
2022-08-03T00:40:50.556Z,99951.22
2022-08-03T00:43:19.378Z,99944.16
2022-08-03T00:45:48.074Z,99931.88
2022-08-03T00:48:29.483Z,99937.16
2022-08-03T00:51:04.039Z,99937.16
2022-08-03T00:53:33.686Z,99938.97
2022-08-03T00:56:02.791Z,99938.09
2022-08-03T00:58:31.367Z,99939.00
2022-08-03T01:01:00.174Z,99937.25
2022-08-03T01:03:28.766Z,99927.56
2022-08-03T01:06:06.023Z,99930.22
2022-08-03T01:08:52.850Z,99930.28
2022-08-03T01:11:30.861Z,99925.00
2022-08-03T01:14:18.682Z,99922.38
2022-08-03T01:16:58.465Z,99919.75
2022-08-03T01:19:45.420Z,99925.03
2022-08-03T01:22:52.225Z,99923.31
2022-08-03T01:25:36.387Z,99921.56
2022-08-03T01:28:30.657Z,99932.19
2022-08-03T01:31:08.140Z,99926.91
2022-08-03T01:33:41.001Z,99918.09
2022-08-03T01:36:14.668Z,99920.75
2022-08-03T01:38:48.094Z,99923.38
2022-08-03T01:41:22.416Z,99916.34
2022-08-03T01:44:03.077Z,99908.41
2022-08-03T01:46:47.702Z,99915.47
2022-08-03T01:49:18.975Z,99919.91
2022-08-03T01:52:03.617Z,99913.75
2022-08-03T01:54:36.938Z,99914.63
2022-08-03T01:57:06.248Z,99909.38
2022-08-03T01:59:37.172Z,99909.38
2022-08-03T02:02:19.515Z,99909.41
2022-08-03T02:04:58.642Z,99904.16
2022-08-03T02:07:30.371Z,99907.66
2022-08-03T02:10:01.565Z,99907.69
2022-08-03T02:12:32.973Z,99905.03
2022-08-03T02:15:03.344Z,99904.16
2022-08-03T02:17:40.114Z,99913.88
2022-08-03T02:20:12.214Z,99905.09
2022-08-03T02:22:43.508Z,99905.09
2022-08-03T02:25:15.223Z,99907.78
2022-08-03T02:27:52.781Z,99905.13
2022-08-03T02:30:21.695Z,99909.56
2022-08-03T02:32:57.034Z,99913.09
2022-08-03T02:35:28.289Z,99914.88
2022-08-03T02:38:02.487Z,99909.56
2022-08-03T02:40:32.607Z,99906.09
2022-08-03T02:43:06.747Z,99911.38
2022-08-03T02:45:40.586Z,99910.50
2022-08-03T02:48:17.512Z,99910.50
2022-08-03T02:50:47.016Z,99903.50
2022-08-03T02:53:18.788Z,99905.25
2022-08-03T02:55:49.697Z,99900.84
2022-08-03T02:58:22.330Z,99899.13
2022-08-03T03:00:53.031Z,99905.31
2022-08-03T03:03:25.621Z,99904.41
2022-08-03T03:05:57.641Z,99906.19
2022-08-03T03:08:28.904Z,99902.66
2022-08-03T03:11:00.675Z,99907.06
2022-08-03T03:13:31.801Z,99897.38
2022-08-03T03:16:04.869Z,99900.91
2022-08-03T03:18:36.133Z,99893.91
2022-08-03T03:21:06.042Z,99896.53
2022-08-03T03:23:38.431Z,99895.69
2022-08-03T03:26:07.643Z,99893.94
2022-08-03T03:28:38.085Z,99906.28
2022-08-03T03:31:07.910Z,99902.75
2022-08-03T03:33:39.411Z,99899.22
2022-08-03T03:36:08.874Z,99899.25
2022-08-03T03:38:37.981Z,99901.03
2022-08-03T03:41:07.058Z,99898.38
2022-08-03T03:43:36.034Z,99904.59
2022-08-03T03:46:05.022Z,99911.63
2022-08-03T03:48:33.665Z,99905.47
2022-08-03T03:51:04.574Z,99908.09
2022-08-03T03:53:33.135Z,99901.09
2022-08-03T03:56:03.018Z,99900.22
2022-08-03T03:58:33.732Z,99909.91
2022-08-03T04:01:03.009Z,99898.47
2022-08-03T04:03:31.824Z,99904.66
2022-08-03T04:06:17.729Z,99909.06
2022-08-03T04:09:13.311Z,99909.09
2022-08-03T04:11:47.114Z,99907.31
2022-08-03T04:14:21.028Z,99911.72
2022-08-03T04:17:01.198Z,99908.22
2022-08-03T04:19:35.680Z,99902.94
2022-08-03T04:22:08.947Z,99900.31
2022-08-03T04:24:43.712Z,99905.59
2022-08-03T04:27:16.018Z,99906.47
2022-08-03T04:29:49.019Z,99902.06
2022-08-03T04:32:18.772Z,99909.13
2022-08-03T04:34:48.311Z,99904.75
2022-08-03T04:37:28.367Z,99907.38
2022-08-03T04:39:59.968Z,99916.19
2022-08-03T04:42:29.185Z,99915.31
2022-08-03T04:45:01.586Z,99915.31
2022-08-03T04:47:33.799Z,99917.06
2022-08-03T04:50:03.789Z,99915.31
2022-08-03T04:52:32.553Z,99916.19
2022-08-03T04:55:02.999Z,99916.19
2022-08-03T04:57:31.750Z,99917.94
2022-08-03T05:00:03.036Z,99922.34
2022-08-03T05:02:32.788Z,99915.31
2022-08-03T05:05:01.685Z,99921.47
2022-08-03T05:07:35.760Z,99917.94
2022-08-03T05:10:14.929Z,99916.19
2022-08-03T05:12:46.805Z,99922.34
2022-08-03T05:15:15.922Z,99922.34
2022-08-03T05:17:44.821Z,99916.19
2022-08-03T05:20:16.541Z,99924.09
2022-08-03T05:22:47.509Z,99924.09
2022-08-03T05:25:19.943Z,99922.34
2022-08-03T05:27:50.124Z,99927.63
2022-08-03T05:30:27.246Z,99919.69
2022-08-03T05:33:04.426Z,99925.88
2022-08-03T05:36:01.033Z,99920.59
2022-08-03T05:38:33.221Z,99925.00
2022-08-03T05:41:22.294Z,99922.34
2022-08-03T05:43:53.811Z,99929.38
2022-08-03T05:46:23.229Z,99925.88
2022-08-03T05:48:52.382Z,99925.88
2022-08-03T05:51:21.059Z,99931.13
2022-08-03T05:53:49.740Z,99937.28
2022-08-03T05:56:23.604Z,99939.06
2022-08-03T05:58:53.231Z,99943.41
2022-08-03T06:01:22.970Z,99940.78
2022-08-03T06:03:52.338Z,99933.75
2022-08-03T06:06:21.186Z,99940.78
2022-08-03T06:08:49.808Z,99943.38
2022-08-03T06:11:20.206Z,99938.09
2022-08-03T06:13:48.762Z,99939.00
2022-08-03T06:16:17.304Z,99939.00
2022-08-03T06:18:46.365Z,99926.63
2022-08-03T06:21:16.277Z,99938.97
2022-08-03T06:23:53.499Z,99931.91
2022-08-03T06:26:29.348Z,99937.19
2022-08-03T06:28:58.345Z,99941.59
2022-08-03T06:31:32.903Z,99938.94
2022-08-03T06:34:32.503Z,99941.56
2022-08-03T06:36:58.487Z,99940.69
2022-08-03T06:39:30.899Z,99931.88
2022-08-03T06:42:00.817Z,99932.75
2022-08-03T06:44:29.364Z,99930.13
2022-08-03T06:46:58.685Z,99929.25
2022-08-03T06:49:27.781Z,99940.66
2022-08-03T06:52:04.118Z,99949.47
2022-08-03T06:54:36.890Z,99944.19
2022-08-03T06:57:09.713Z,99938.00
2022-08-03T07:00:09.190Z,99945.03
2022-08-03T07:02:28.599Z,99942.38
2022-08-03T07:04:58.353Z,99950.31
2022-08-03T07:07:27.372Z,99951.16
2022-08-03T07:09:57.654Z,99944.13
2022-08-03T07:12:30.654Z,99949.34
2022-08-03T07:15:02.234Z,99947.59
2022-08-03T07:17:33.471Z,99948.47
2022-08-03T07:20:05.322Z,99947.59
2022-08-03T07:22:33.907Z,99952.84
2022-08-03T07:25:02.611Z,99949.31
2022-08-03T07:27:32.635Z,99951.94
2022-08-03T07:30:01.544Z,99954.56
2022-08-03T07:32:31.627Z,99955.41
2022-08-03T07:35:01.593Z,99950.13
2022-08-03T07:37:31.763Z,99953.59
2022-08-03T07:40:00.661Z,99953.56
2022-08-03T07:42:31.309Z,99950.00
2022-08-03T07:45:00.702Z,99948.22
2022-08-03T07:47:35.476Z,99950.84
2022-08-03T07:50:08.695Z,99956.97
2022-08-03T07:52:49.667Z,99958.66
2022-08-03T07:55:19.571Z,99958.66
2022-08-03T07:58:00.899Z,99953.34
2022-08-03T08:00:29.515Z,99956.84
2022-08-03T08:02:58.224Z,99949.72
2022-08-03T08:05:28.019Z,99947.03
2022-08-03T08:07:56.587Z,99949.63
2022-08-03T08:10:25.211Z,99948.69
2022-08-03T08:12:55.392Z,99949.47
2022-08-03T08:15:24.156Z,99945.88
2022-08-03T08:17:55.172Z,99953.78
2022-08-03T08:20:27.123Z,99955.47
2022-08-03T08:23:00.260Z,99948.31
2022-08-03T08:25:31.485Z,99954.41
2022-08-03T08:28:29.286Z,99943.75
2022-08-03T08:30:52.402Z,99945.44
2022-08-03T08:33:22.329Z,99944.44
2022-08-03T08:35:51.673Z,99940.81
2022-08-03T08:38:20.317Z,99944.31
2022-08-03T08:40:52.727Z,99943.34
2022-08-03T08:43:23.096Z,99946.81
2022-08-03T08:45:53.545Z,99945.84
2022-08-03T08:48:27.090Z,99944.81
2022-08-03T08:50:57.260Z,99938.59
2022-08-03T08:53:30.272Z,99943.78
2022-08-03T08:56:01.825Z,99941.03
2022-08-03T08:58:39.259Z,99946.28
2022-08-03T09:01:08.417Z,99940.00
2022-08-03T09:03:37.457Z,99948.75
2022-08-03T09:06:06.826Z,99944.25
2022-08-03T09:08:35.966Z,99949.44
2022-08-03T09:11:04.686Z,99952.88
2022-08-03T09:13:35.262Z,99949.19
2022-08-03T09:16:18.623Z,99945.53
2022-08-03T09:18:50.794Z,99952.53
2022-08-03T09:21:34.184Z,99947.13
2022-08-03T09:24:10.237Z,99951.47
2022-08-03T09:26:53.673Z,99945.16
2022-08-03T09:29:24.295Z,99944.16
2022-08-03T09:32:04.067Z,99944.88
2022-08-03T09:34:33.533Z,99948.31
2022-08-03T09:37:02.171Z,99949.97
2022-08-03T09:39:42.074Z,99948.09
2022-08-03T09:42:15.012Z,99931.22
2022-08-03T09:44:47.397Z,99943.47
2022-08-03T09:47:18.694Z,99945.13
2022-08-03T09:50:02.153Z,99939.69
2022-08-03T09:52:48.351Z,99944.00
2022-08-03T09:56:33.878Z,99947.34
2022-08-03T09:58:12.728Z,99946.38
2022-08-03T10:00:58.367Z,99947.13
2022-08-03T10:03:29.651Z,99939.91
2022-08-03T10:06:00.148Z,99932.72
2022-08-03T10:08:29.073Z,99939.69
2022-08-03T10:10:58.757Z,99950.19
2022-08-03T10:13:27.354Z,99948.28
2022-08-03T10:16:24.942Z,99942.84
2022-08-03T10:18:46.021Z,99940.97
2022-08-03T10:21:18.696Z,99938.13
2022-08-03T10:23:48.014Z,99947.78
2022-08-03T10:26:23.826Z,99930.81
2022-08-03T10:28:55.261Z,99932.44
2022-08-03T10:31:26.269Z,99928.78
2022-08-03T10:33:59.413Z,99926.84
2022-08-03T10:36:31.998Z,99931.16
2022-08-03T10:39:02.745Z,99926.59
2022-08-03T10:41:47.269Z,99925.56
2022-08-03T10:44:20.712Z,99918.31
2022-08-03T10:46:52.190Z,99916.41
2022-08-03T10:49:34.425Z,99916.38
2022-08-03T10:52:13.647Z,99921.53
2022-08-03T10:55:11.842Z,99911.66
2022-08-03T10:57:58.843Z,99911.53
2022-08-03T11:00:30.408Z,99906.13
2022-08-03T11:03:14.000Z,99905.13
2022-08-03T11:05:43.905Z,99902.41
2022-08-03T11:08:36.758Z,99901.34
2022-08-03T11:11:29.409Z,99901.31
2022-08-03T11:14:00.684Z,99894.91
2022-08-03T11:16:30.306Z,99893.91
2022-08-03T11:19:03.204Z,99890.22
2022-08-03T11:21:55.998Z,99891.88
2022-08-03T11:25:02.199Z,99881.16
2022-08-03T11:27:34.341Z,99888.97
2022-08-03T11:30:07.656Z,99886.97
2022-08-03T11:32:58.477Z,99884.22
2022-08-03T11:35:30.817Z,99883.19
2022-08-03T11:38:13.041Z,99882.19
2022-08-03T11:40:45.173Z,99881.13
2022-08-03T11:43:46.556Z,99889.88
2022-08-03T11:46:29.390Z,99884.41
2022-08-03T11:49:10.476Z,99882.50
2022-08-03T11:51:42.096Z,99879.66
2022-08-03T11:54:11.441Z,99882.13
2022-08-03T11:56:48.725Z,99884.72
2022-08-03T11:59:22.310Z,99882.81
2022-08-03T12:01:51.829Z,99872.97
2022-08-03T12:04:20.400Z,99881.72
2022-08-03T12:07:03.769Z,99889.56
2022-08-03T12:09:34.402Z,99887.66
2022-08-03T12:12:03.218Z,99880.38
2022-08-03T12:14:50.424Z,99877.50
2022-08-03T12:17:20.896Z,99873.84
2022-08-03T12:19:49.605Z,99871.00
2022-08-03T12:22:33.303Z,99882.38
2022-08-03T12:25:02.092Z,99865.44
2022-08-03T12:27:30.662Z,99868.88
2022-08-03T12:30:01.646Z,99865.13
2022-08-03T12:32:31.317Z,99870.28
2022-08-03T12:35:01.517Z,99867.47
2022-08-03T12:37:32.518Z,99867.28
2022-08-03T12:40:10.026Z,99869.00
2022-08-03T12:42:41.312Z,99862.59
2022-08-03T12:45:24.662Z,99866.03
2022-08-03T12:47:56.117Z,99860.53
2022-08-03T12:50:31.511Z,99854.19
2022-08-03T12:53:04.642Z,99854.88
2022-08-03T12:55:56.253Z,99861.78
2022-08-03T12:58:34.997Z,99866.91
2022-08-03T13:01:09.889Z,99862.34
2022-08-03T13:03:45.825Z,99855.03
2022-08-03T13:06:20.252Z,99852.19
2022-08-03T13:08:51.986Z,99855.56
2022-08-03T13:11:22.723Z,99851.00
2022-08-03T13:13:51.893Z,99851.75
2022-08-03T13:16:21.949Z,99850.78
2022-08-03T13:18:51.969Z,99838.16
2022-08-03T13:21:22.243Z,99842.38
2022-08-03T13:23:52.172Z,99845.75
2022-08-03T13:26:20.776Z,99847.41
2022-08-03T13:28:49.565Z,99845.56
2022-08-03T13:31:18.184Z,99846.44
2022-08-03T13:33:48.409Z,99839.28
2022-08-03T13:36:17.465Z,99840.06
2022-08-03T13:38:46.091Z,99846.25
2022-08-03T13:41:17.091Z,99847.88
2022-08-03T13:43:46.054Z,99847.78
2022-08-03T13:46:15.187Z,99842.34
2022-08-03T13:48:43.734Z,99838.66
2022-08-03T13:51:22.501Z,99840.25
2022-08-03T13:53:53.290Z,99832.97
2022-08-03T13:56:23.324Z,99819.50
2022-08-03T13:58:51.836Z,99816.66
2022-08-03T14:01:53.526Z,99821.81
2022-08-03T14:04:15.158Z,99823.56
2022-08-03T14:06:50.714Z,99817.28
2022-08-03T14:09:19.376Z,99812.75
2022-08-03T14:12:04.067Z,99818.00
2022-08-03T14:14:37.433Z,99817.06
2022-08-03T14:17:06.153Z,99817.94
2022-08-03T14:19:40.577Z,99807.16
2022-08-03T14:22:22.651Z,99804.38
2022-08-03T14:24:51.236Z,99811.44
2022-08-03T14:27:21.836Z,99805.88
2022-08-03T14:29:50.782Z,99803.22
2022-08-03T14:32:19.337Z,99802.28
2022-08-03T14:34:47.911Z,99799.63
2022-08-03T14:37:16.623Z,99797.88
2022-08-03T14:40:02.384Z,99804.25
2022-08-03T14:42:32.261Z,99790.19
2022-08-03T14:45:04.798Z,99797.41
2022-08-03T14:50:29.164Z,99794.88
2022-08-03T14:50:37.961Z,99787.91
2022-08-03T14:53:09.470Z,99790.59
2022-08-03T14:55:38.985Z,99785.19
2022-08-03T14:58:22.241Z,99777.88
2022-08-03T15:00:52.940Z,99777.88
2022-08-03T15:03:24.860Z,99781.28
2022-08-03T15:05:55.121Z,99775.81
2022-08-03T15:08:25.561Z,99778.38
2022-08-03T15:10:54.845Z,99776.50
2022-08-03T15:13:25.699Z,99772.75
2022-08-03T15:15:54.191Z,99778.88
2022-08-03T15:18:23.511Z,99776.00
2022-08-03T15:20:52.359Z,99773.19
2022-08-03T15:23:21.157Z,99765.16
2022-08-03T15:26:28.766Z,99765.97
2022-08-03T15:28:40.006Z,99762.31
2022-08-03T15:31:08.681Z,99748.84
2022-08-03T15:33:37.162Z,99752.41
2022-08-03T15:36:06.458Z,99746.94
2022-08-03T15:38:34.985Z,99755.75
2022-08-03T15:41:03.641Z,99745.03
2022-08-03T15:43:32.147Z,99744.13
2022-08-03T15:46:28.203Z,99744.13
2022-08-03T15:48:50.865Z,99741.59
2022-08-03T15:51:19.720Z,99752.28
2022-08-03T15:53:48.339Z,99745.19
2022-08-03T15:56:18.810Z,99747.88
2022-08-03T15:59:09.294Z,99739.84
2022-08-03T16:01:37.849Z,99742.63
2022-08-03T16:04:06.634Z,99733.03
2022-08-03T16:06:36.578Z,99743.03
2022-08-03T16:09:24.026Z,99736.78
2022-08-03T16:11:56.653Z,99738.84
2022-08-03T16:14:32.495Z,99733.56
2022-08-03T16:17:08.020Z,99739.91
2022-08-03T16:19:36.611Z,99738.31
2022-08-03T16:22:08.339Z,99739.25
2022-08-03T16:24:37.920Z,99736.63
2022-08-03T16:27:17.257Z,99732.19
2022-08-03T16:29:57.401Z,99734.09
2022-08-03T16:32:27.339Z,99739.44
2022-08-03T16:34:55.979Z,99734.13
2022-08-03T16:37:39.983Z,99736.75
2022-08-03T16:40:17.279Z,99727.88
2022-08-03T16:42:48.635Z,99735.06
2022-08-03T16:45:17.360Z,99741.34
2022-08-03T16:47:47.396Z,99728.94
2022-08-03T16:50:29.925Z,99732.59
2022-08-03T16:52:58.786Z,99737.09
2022-08-03T16:55:43.276Z,99732.59
2022-08-03T16:58:19.426Z,99736.22
2022-08-03T17:01:10.837Z,99737.09
2022-08-03T17:04:02.444Z,99731.78
2022-08-03T17:06:36.111Z,99732.78
2022-08-03T17:09:08.732Z,99734.72
2022-08-03T17:11:44.131Z,99733.91
2022-08-03T17:14:22.020Z,99731.25
2022-08-03T17:16:53.881Z,99724.97
2022-08-03T17:19:26.431Z,99731.97
2022-08-03T17:22:04.551Z,99727.50
2022-08-03T17:24:41.021Z,99728.44
2022-08-03T17:28:42.223Z,99725.84
2022-08-03T17:30:09.768Z,99730.41
2022-08-03T17:32:42.777Z,99725.94
2022-08-03T17:35:22.832Z,99733.09
2022-08-03T17:38:02.692Z,99728.66
2022-08-03T17:40:34.881Z,99724.28
2022-08-03T17:44:12.720Z,99721.59
2022-08-03T17:45:55.711Z,99726.09
2022-08-03T17:48:24.863Z,99728.81
2022-08-03T17:51:01.660Z,99725.31
2022-08-03T17:53:33.721Z,99736.16
2022-08-03T17:56:38.877Z,99740.72
2022-08-03T17:59:15.266Z,99739.16
2022-08-03T18:02:29.523Z,99739.34
2022-08-03T18:05:02.686Z,99748.47
2022-08-03T18:08:00.830Z,99736.19
2022-08-03T18:10:49.862Z,99736.38
2022-08-03T18:13:25.316Z,99726.78
2022-08-03T18:16:03.094Z,99728.72
2022-08-03T18:18:37.468Z,99735.97
2022-08-03T18:21:16.893Z,99732.59
2022-08-03T18:24:00.542Z,99732.78
2022-08-03T18:26:31.120Z,99735.53
2022-08-03T18:29:03.394Z,99736.59
2022-08-03T18:32:02.697Z,99730.56
2022-08-03T18:34:33.282Z,99736.09
2022-08-03T18:37:07.438Z,99736.28
2022-08-03T18:39:50.331Z,99734.56
2022-08-03T18:42:26.364Z,99736.53
2022-08-03T18:44:56.187Z,99739.25
2022-08-03T18:47:53.066Z,99741.19
2022-08-03T18:50:30.714Z,99740.44
2022-08-03T18:53:16.452Z,99730.72
2022-08-03T18:56:02.268Z,99737.94
2022-08-03T18:58:45.967Z,99737.09
2022-08-03T19:01:57.706Z,99746.97
2022-08-03T19:04:17.300Z,99731.97
2022-08-03T19:07:04.210Z,99740.09
2022-08-03T19:09:45.085Z,99737.53
2022-08-03T19:12:28.093Z,99737.63
2022-08-03T19:15:06.550Z,99746.59
2022-08-03T19:17:50.318Z,99744.09
2022-08-03T19:20:38.015Z,99740.72
2022-08-03T19:23:14.136Z,99750.53
2022-08-03T19:25:52.030Z,99749.69
2022-08-03T19:28:48.289Z,99755.91
2022-08-03T19:31:30.807Z,99758.69
2022-08-03T19:34:09.575Z,99756.06
2022-08-03T19:36:51.727Z,99758.81
2022-08-03T19:39:25.700Z,99758.94
2022-08-03T19:42:20.170Z,99760.84
2022-08-03T19:45:01.955Z,99765.41
2022-08-03T19:47:46.698Z,99761.94
2022-08-03T19:50:16.247Z,99769.09
2022-08-03T19:52:48.770Z,99764.69
2022-08-03T19:55:19.145Z,99773.59
2022-08-03T19:57:49.704Z,99766.47
2022-08-03T20:00:26.523Z,99762.94
2022-08-03T20:02:59.506Z,99759.50
2022-08-03T20:05:29.033Z,99758.72
2022-08-03T20:08:14.933Z,99761.50
2022-08-03T20:10:51.365Z,99757.22
2022-08-03T20:13:21.286Z,99762.59
2022-08-03T20:18:39.915Z,99768.00
2022-08-03T20:21:15.575Z,99760.78
2022-08-03T20:24:03.371Z,99760.00
2022-08-03T20:26:35.311Z,99758.16
2022-08-03T20:29:10.239Z,99765.31
2022-08-03T20:31:40.229Z,99764.53
2022-08-03T20:34:09.206Z,99760.22
2022-08-03T20:36:38.800Z,99767.44
2022-08-03T20:39:09.071Z,99760.47
2022-08-03T20:41:39.023Z,99768.50
2022-08-03T20:44:08.059Z,99771.25
2022-08-03T20:46:53.478Z,99773.91
2022-08-03T20:49:31.434Z,99766.78
2022-08-03T20:52:18.419Z,99773.03
2022-08-03T20:54:48.981Z,99772.16
2022-08-03T20:57:18.534Z,99767.75
2022-08-03T20:59:51.085Z,99767.84
2022-08-03T21:02:29.718Z,99767.84
2022-08-03T21:05:03.767Z,99771.44
2022-08-03T21:08:05.746Z,99764.34
2022-08-03T21:10:33.994Z,99763.50
2022-08-03T21:13:10.550Z,99763.47
2022-08-03T21:13:17.800Z,99756.44
2022-08-03T21:16:12.605Z,99759.97
2022-08-03T21:18:46.845Z,99752.13
2022-08-03T21:21:20.892Z,99751.25
2022-08-03T21:23:54.668Z,99753.13
2022-08-03T21:26:26.717Z,99754.91
2022-08-03T21:28:57.664Z,99750.50
2022-08-03T21:31:27.164Z,99755.88
2022-08-03T21:34:01.332Z,99747.06
2022-08-03T21:36:34.955Z,99754.22
2022-08-03T21:39:09.509Z,99750.72
2022-08-03T21:41:40.776Z,99751.75
2022-08-03T21:44:10.168Z,99749.97
2022-08-03T21:46:41.404Z,99756.28
2022-08-03T21:50:05.316Z,99759.00
2022-08-03T21:52:06.457Z,99753.72
2022-08-03T21:54:38.087Z,99757.34
2022-08-03T21:57:15.185Z,99748.47
2022-08-03T21:59:53.621Z,99755.63
2022-08-03T22:02:28.229Z,99751.19
2022-08-03T22:05:00.172Z,99751.31
2022-08-03T22:07:35.856Z,99755.81
2022-08-03T22:10:07.693Z,99753.25
2022-08-03T22:12:36.889Z,99752.41
2022-08-03T22:15:09.076Z,99744.50
2022-08-03T22:17:55.384Z,99750.75
2022-08-03T22:20:26.516Z,99749.09
2022-08-03T22:22:58.808Z,99752.72
2022-08-03T22:25:31.102Z,99755.44
2022-08-03T22:28:02.516Z,99753.75
2022-08-03T22:30:33.059Z,99757.38
2022-08-03T22:33:04.827Z,99759.16
2022-08-03T22:35:46.463Z,99753.94
2022-08-03T22:38:19.542Z,99752.22
2022-08-03T22:40:51.148Z,99750.53
2022-08-03T22:43:23.582Z,99746.16
2022-08-03T22:46:09.496Z,99748.03
2022-08-03T22:48:41.839Z,99749.88
2022-08-03T22:51:11.251Z,99753.50
2022-08-03T22:53:42.500Z,99755.28
2022-08-03T22:56:12.107Z,99750.00
2022-08-03T22:58:40.632Z,99749.22
2022-08-03T23:01:11.526Z,99748.38
2022-08-03T23:04:00.151Z,99743.13
2022-08-03T23:06:35.913Z,99739.66
2022-08-03T23:09:08.888Z,99741.47
2022-08-03T23:11:45.504Z,99751.31
2022-08-03T23:14:17.295Z,99743.38
2022-08-03T23:16:47.842Z,99741.72
2022-08-03T23:19:24.993Z,99737.31
2022-08-03T23:22:02.929Z,99746.19
2022-08-03T23:24:36.915Z,99754.28
2022-08-03T23:27:07.900Z,99746.38
2022-08-03T23:29:38.882Z,99746.41
2022-08-03T23:32:08.897Z,99749.16
2022-08-03T23:34:58.416Z,99746.53
2022-08-03T23:37:27.943Z,99743.13
2022-08-03T23:39:59.482Z,99740.50
2022-08-03T23:42:29.407Z,99743.22
2022-08-03T23:45:01.102Z,99747.66
2022-08-03T23:47:46.896Z,99748.59
2022-08-03T23:50:16.424Z,99745.13
2022-08-03T23:52:59.451Z,99737.22
2022-08-03T23:55:48.703Z,99741.69
2022-08-03T23:58:39.567Z,99736.47
